createdAt,value
2018-09-21T00:00:08.978Z,100758.81
2018-09-21T00:02:36.359Z,100751.95
2018-09-21T00:05:04.158Z,100752.29
2018-09-21T00:07:31.222Z,100753.48
2018-09-21T00:09:59.437Z,100748.02
2018-09-21T00:12:27.346Z,100748.67
2018-09-21T00:14:55.120Z,100747.34
2018-09-21T00:17:23.144Z,100747.67
2018-09-21T00:19:51.043Z,100749.30
2018-09-21T00:22:18.920Z,100749.34
2018-09-21T00:24:45.991Z,100751.80
2018-09-21T00:27:13.067Z,100751.17
2018-09-21T00:29:40.953Z,100747.18
2018-09-21T00:32:07.972Z,100742.98
2018-09-21T00:34:35.955Z,100742.15
2018-09-21T00:37:03.895Z,100739.48
2018-09-21T00:39:31.983Z,100742.15
2018-09-21T00:41:59.691Z,100739.31
2018-09-21T00:44:26.806Z,100737.48
2018-09-21T00:46:54.724Z,100740.33
2018-09-21T00:49:22.713Z,100734.95
2018-09-21T00:51:51.433Z,100734.33
2018-09-21T00:54:18.497Z,100731.83
2018-09-21T00:56:46.452Z,100727.14
2018-09-21T00:59:13.490Z,100721.66
2018-09-21T01:01:41.455Z,100718.67
2018-09-21T01:04:08.452Z,100714.19
2018-09-21T01:06:36.614Z,100716.67
2018-09-21T01:09:04.975Z,100710.64
2018-09-21T01:11:32.755Z,100710.52
2018-09-21T01:14:00.373Z,100713.22
2018-09-21T01:16:27.437Z,100711.90
2018-09-21T01:18:55.339Z,100701.89
2018-09-21T01:21:22.323Z,100703.04
2018-09-21T01:23:51.717Z,100703.38
2018-09-21T01:26:19.491Z,100704.83
2018-09-21T01:28:47.602Z,100702.67
2018-09-21T01:31:15.517Z,100698.39
2018-09-21T01:33:42.635Z,100693.37
2018-09-21T01:36:09.646Z,100694.70
2018-09-21T01:38:37.579Z,100691.03
2018-09-21T01:41:04.598Z,100691.08
2018-09-21T01:43:32.536Z,100679.12
2018-09-21T01:46:02.341Z,100684.23
2018-09-21T01:48:30.517Z,100691.53
2018-09-21T01:50:57.530Z,100687.05
2018-09-21T01:53:25.548Z,100681.56
2018-09-21T01:55:53.467Z,100682.56
2018-09-21T01:58:22.379Z,100685.05
2018-09-21T02:00:49.416Z,100693.03
2018-09-21T02:03:17.343Z,100682.89
2018-09-21T02:05:45.353Z,100679.95
2018-09-21T02:08:12.385Z,100674.76
2018-09-21T02:10:40.279Z,100674.97
2018-09-21T02:13:08.322Z,100674.63
2018-09-21T02:15:42.084Z,100676.45
2018-09-21T02:18:09.923Z,100670.22
2018-09-21T02:20:37.812Z,100664.08
2018-09-21T02:23:04.844Z,100663.30
2018-09-21T02:25:32.901Z,100663.80
2018-09-21T02:28:01.183Z,100660.19
2018-09-21T02:30:29.564Z,100652.83
2018-09-21T02:32:57.562Z,100653.66
2018-09-21T02:35:24.624Z,100651.20
2018-09-21T02:37:52.762Z,100656.16
2018-09-21T02:40:19.842Z,100643.70
2018-09-21T02:42:46.938Z,100649.00
2018-09-21T02:45:14.041Z,100645.23
2018-09-21T02:47:42.042Z,100648.92
2018-09-21T02:50:15.878Z,100645.68
2018-09-21T02:52:43.678Z,100646.92
2018-09-21T02:55:10.736Z,100638.11
2018-09-21T02:57:38.568Z,100639.33
2018-09-21T03:00:06.083Z,100637.25
2018-09-21T03:02:34.022Z,100632.89
2018-09-21T03:05:01.042Z,100626.09
2018-09-21T03:07:29.957Z,100618.72
2018-09-21T03:09:57.804Z,100618.94
2018-09-21T03:12:25.604Z,100616.11
2018-09-21T03:14:53.605Z,100617.98
2018-09-21T03:17:22.365Z,100609.84
2018-09-21T03:19:51.312Z,100608.97
2018-09-21T03:22:18.418Z,100607.34
2018-09-21T03:24:46.510Z,100610.84
2018-09-21T03:27:13.501Z,100599.67
2018-09-21T03:29:41.445Z,100595.18
2018-09-21T03:32:09.404Z,100594.84
2018-09-21T03:34:36.550Z,100598.50
2018-09-21T03:37:03.555Z,100592.86
2018-09-21T03:39:31.473Z,100591.53
2018-09-21T03:42:00.593Z,100591.19
2018-09-21T03:44:29.532Z,100587.38
2018-09-21T03:46:57.345Z,100581.56
2018-09-21T03:49:25.319Z,100584.25
2018-09-21T03:51:53.267Z,100569.59
2018-09-21T03:54:21.435Z,100572.75
2018-09-21T03:56:48.543Z,100566.14
2018-09-21T03:59:16.413Z,100565.41
2018-09-21T04:01:44.459Z,100569.27
2018-09-21T04:04:12.446Z,100563.45
2018-09-21T04:06:40.384Z,100565.56
2018-09-21T04:09:09.671Z,100556.94
2018-09-21T04:11:36.726Z,100556.40
2018-09-21T04:14:03.723Z,100552.78
2018-09-21T04:16:30.709Z,100548.79
2018-09-21T04:18:57.793Z,100551.63
2018-09-21T04:21:25.672Z,100548.09
2018-09-21T04:23:52.722Z,100543.97
2018-09-21T04:26:19.803Z,100537.16
2018-09-21T04:28:47.916Z,100532.52
2018-09-21T04:31:14.905Z,100534.05
2018-09-21T04:33:42.036Z,100533.17
2018-09-21T04:36:10.154Z,100533.84
2018-09-21T04:38:37.260Z,100529.52
2018-09-21T04:41:04.211Z,100529.36
2018-09-21T04:43:31.672Z,100531.02
2018-09-21T04:46:00.142Z,100529.82
2018-09-21T04:48:27.370Z,100527.16
2018-09-21T04:50:55.418Z,100528.69
2018-09-21T04:53:23.227Z,100525.50
2018-09-21T04:55:52.135Z,100522.01
2018-09-21T04:58:20.177Z,100520.02
2018-09-21T05:00:47.989Z,100520.52
2018-09-21T05:03:17.152Z,100521.68
2018-09-21T05:05:44.172Z,100516.32
2018-09-21T05:08:11.265Z,100517.48
2018-09-21T05:10:39.100Z,100511.20
2018-09-21T05:13:07.175Z,100504.20
2018-09-21T05:15:35.264Z,100510.67
2018-09-21T05:18:10.054Z,100508.05
2018-09-21T05:20:38.194Z,100502.50
2018-09-21T05:23:12.138Z,100500.67
2018-09-21T05:25:40.179Z,100500.34
2018-09-21T05:28:07.964Z,100499.72
2018-09-21T05:30:35.890Z,100499.09
2018-09-21T05:33:03.799Z,100494.77
2018-09-21T05:35:31.790Z,100487.25
2018-09-21T05:37:59.898Z,100486.59
2018-09-21T05:40:27.981Z,100482.61
2018-09-21T05:42:56.199Z,100482.81
2018-09-21T05:45:23.322Z,100480.48
2018-09-21T05:47:51.251Z,100480.32
2018-09-21T05:50:19.442Z,100475.67
2018-09-21T05:52:46.584Z,100475.20
2018-09-21T05:55:14.487Z,100477.53
2018-09-21T05:57:42.323Z,100477.53
2018-09-21T06:00:10.239Z,100473.18
2018-09-21T06:02:37.374Z,100478.89
2018-09-21T06:05:07.026Z,100471.75
2018-09-21T06:07:34.433Z,100484.87
2018-09-21T06:11:04.600Z,100476.57
2018-09-21T06:13:31.719Z,100463.23
2018-09-21T06:15:59.144Z,100469.09
2018-09-21T06:18:26.377Z,100464.88
2018-09-21T06:20:53.396Z,100470.62
2018-09-21T06:23:21.395Z,100465.41
2018-09-21T06:25:48.512Z,100463.11
2018-09-21T06:28:16.459Z,100454.97
2018-09-21T06:30:43.606Z,100459.50
2018-09-21T06:33:10.695Z,100464.67
2018-09-21T06:35:37.789Z,100454.87
2018-09-21T06:38:12.437Z,100451.20
2018-09-21T06:40:39.647Z,100443.39
2018-09-21T06:43:07.790Z,100441.88
2018-09-21T06:45:34.944Z,100440.23
2018-09-21T06:48:03.030Z,100434.09
2018-09-21T06:50:30.948Z,100434.59
2018-09-21T06:52:58.450Z,100435.59
2018-09-21T06:55:25.714Z,100430.95
2018-09-21T06:57:52.990Z,100431.09
2018-09-21T07:00:20.176Z,100417.95
2018-09-21T07:02:48.010Z,100418.80
2018-09-21T07:05:17.911Z,100416.52
2018-09-21T07:07:45.413Z,100411.16
2018-09-21T07:10:13.225Z,100408.31
2018-09-21T07:12:40.313Z,100404.62
2018-09-21T07:15:07.718Z,100396.98
2018-09-21T07:17:34.873Z,100404.80
2018-09-21T07:20:03.081Z,100395.98
2018-09-21T07:22:31.128Z,100387.35
2018-09-21T07:24:59.187Z,100387.52
2018-09-21T07:27:26.326Z,100391.33
2018-09-21T07:29:53.399Z,100398.46
2018-09-21T07:32:21.154Z,100390.48
2018-09-21T07:34:48.198Z,100386.16
2018-09-21T07:37:15.278Z,100381.53
2018-09-21T07:39:42.472Z,100385.67
2018-09-21T07:42:09.541Z,100374.88
2018-09-21T07:44:37.096Z,100367.41
2018-09-21T07:47:04.206Z,100370.39
2018-09-21T07:49:31.474Z,100361.23
2018-09-21T07:51:59.110Z,100362.08
2018-09-21T07:54:28.330Z,100360.75
2018-09-21T07:56:55.409Z,100354.09
2018-09-21T07:59:23.628Z,100359.42
2018-09-21T08:01:51.306Z,100347.09
2018-09-21T08:04:19.340Z,100347.45
2018-09-21T08:06:47.262Z,100336.95
2018-09-21T08:09:14.437Z,100339.61
2018-09-21T08:11:41.551Z,100329.47
2018-09-21T08:14:15.461Z,100333.79
2018-09-21T08:16:42.575Z,100323.63
2018-09-21T08:19:09.665Z,100330.14
2018-09-21T08:21:36.847Z,100331.13
2018-09-21T08:24:04.317Z,100331.95
2018-09-21T08:26:31.388Z,100323.98
2018-09-21T08:28:59.332Z,100330.30
2018-09-21T08:31:26.550Z,100323.84
2018-09-21T08:33:53.616Z,100324.84
2018-09-21T08:36:22.889Z,100322.83
2018-09-21T08:38:50.125Z,100323.83
2018-09-21T08:41:17.184Z,100328.64
2018-09-21T08:43:44.249Z,100319.66
2018-09-21T08:46:18.983Z,100316.17
2018-09-21T08:48:46.706Z,100299.05
2018-09-21T08:51:14.610Z,100299.20
2018-09-21T08:53:42.654Z,100287.59
2018-09-21T08:56:10.854Z,100287.91
2018-09-21T08:58:38.085Z,100289.57
2018-09-21T09:01:05.129Z,100278.94
2018-09-21T09:03:32.214Z,100286.91
2018-09-21T09:06:00.903Z,100282.59
2018-09-21T09:08:30.087Z,100286.26
2018-09-21T09:10:57.088Z,100278.09
2018-09-21T09:13:24.904Z,100267.45
2018-09-21T09:15:52.572Z,100264.80
2018-09-21T09:18:19.690Z,100258.14
2018-09-21T09:20:46.964Z,100251.00
2018-09-21T09:23:14.076Z,100247.00
2018-09-21T09:25:42.220Z,100247.67
2018-09-21T09:28:16.140Z,100250.02
2018-09-21T09:30:44.318Z,100243.82
2018-09-21T09:33:11.302Z,100240.84
2018-09-21T09:35:39.178Z,100231.53
2018-09-21T09:38:06.372Z,100230.20
2018-09-21T09:40:33.523Z,100217.09
2018-09-21T09:43:00.530Z,100214.94
2018-09-21T09:45:27.705Z,100213.11
2018-09-21T09:47:54.810Z,100208.43
2018-09-21T09:50:22.944Z,100212.61
2018-09-21T09:52:50.015Z,100216.59
2018-09-21T09:55:17.057Z,100201.47
2018-09-21T09:57:46.166Z,100203.11
2018-09-21T10:00:13.281Z,100192.47
2018-09-21T10:02:40.346Z,100180.50
2018-09-21T10:05:07.395Z,100168.53
2018-09-21T10:07:34.422Z,100160.56
2018-09-21T10:10:02.258Z,100160.42
2018-09-21T10:12:30.254Z,100159.09
2018-09-21T10:14:59.399Z,100164.88
2018-09-21T10:17:26.526Z,100164.73
2018-09-21T10:19:53.597Z,100151.09
2018-09-21T10:22:21.632Z,100150.62
2018-09-21T10:24:48.593Z,100148.92
2018-09-21T10:27:15.672Z,100148.10
2018-09-21T10:29:42.826Z,100149.61
2018-09-21T10:32:10.764Z,100139.12
2018-09-21T10:34:38.760Z,100137.31
2018-09-21T10:37:05.712Z,100138.97
2018-09-21T10:39:39.573Z,100127.65
2018-09-21T10:42:06.783Z,100124.84
2018-09-21T10:44:33.937Z,100115.20
2018-09-21T10:47:01.050Z,100106.38
2018-09-21T10:49:29.447Z,100103.56
2018-09-21T10:51:56.497Z,100102.38
2018-09-21T10:54:23.626Z,100097.92
2018-09-21T10:56:51.869Z,100089.44
2018-09-21T10:59:18.896Z,100082.61
2018-09-21T11:01:46.007Z,100079.62
2018-09-21T11:04:13.025Z,100062.34
2018-09-21T11:06:40.850Z,100061.66
2018-09-21T11:09:09.383Z,100054.87
2018-09-21T11:11:36.381Z,100060.69
2018-09-21T11:14:03.419Z,100064.17
2018-09-21T11:16:31.472Z,100062.02
2018-09-21T11:18:59.255Z,100058.53
2018-09-21T11:21:26.424Z,100059.68
2018-09-21T11:23:53.558Z,100047.89
2018-09-21T11:26:21.297Z,100041.56
2018-09-21T11:28:48.340Z,100036.57
2018-09-21T11:31:16.403Z,100021.62
2018-09-21T11:33:43.557Z,100028.41
2018-09-21T11:36:11.737Z,100020.94
2018-09-21T11:38:38.738Z,100016.63
2018-09-21T11:41:06.044Z,100015.30
2018-09-21T11:43:33.098Z,100004.34
2018-09-21T11:46:03.184Z,100003.33
2018-09-21T11:48:30.464Z,99984.89
2018-09-21T11:50:59.513Z,99987.05
2018-09-21T11:53:33.304Z,99978.90
2018-09-21T11:56:01.108Z,99986.55
2018-09-21T11:58:29.008Z,99988.06
2018-09-21T12:00:56.862Z,99979.91
2018-09-21T12:03:24.010Z,99986.05
2018-09-21T12:05:52.015Z,99972.93
2018-09-21T12:08:19.948Z,99969.45
2018-09-21T12:10:47.933Z,99960.97
2018-09-21T12:13:15.768Z,99958.30
2018-09-21T12:15:42.925Z,99953.96
2018-09-21T12:18:09.982Z,99949.83
2018-09-21T12:20:36.950Z,99959.45
2018-09-21T12:23:03.960Z,99946.98
2018-09-21T12:25:30.997Z,99941.84
2018-09-21T12:27:59.265Z,99934.37
2018-09-21T12:30:26.470Z,99937.68
2018-09-21T12:32:53.743Z,99932.03
2018-09-21T12:35:21.475Z,99924.88
2018-09-21T12:37:54.787Z,99917.23
2018-09-21T12:40:22.694Z,99917.09
2018-09-21T12:42:51.954Z,99922.91
2018-09-21T12:45:19.895Z,99909.62
2018-09-21T12:47:47.224Z,99906.77
2018-09-21T12:50:19.983Z,99913.09
2018-09-21T12:52:46.946Z,99905.95
2018-09-21T12:55:14.294Z,99908.44
2018-09-21T12:57:41.364Z,99913.24
2018-09-21T13:00:09.443Z,99905.27
2018-09-21T13:02:36.741Z,99919.89
2018-09-21T13:05:03.910Z,99914.75
2018-09-21T13:07:31.963Z,99916.08
2018-09-21T13:10:01.587Z,99913.09
2018-09-21T13:12:29.443Z,99898.80
2018-09-21T13:14:56.566Z,99901.13
2018-09-21T13:17:23.649Z,99897.28
2018-09-21T13:19:53.010Z,99892.32
2018-09-21T13:22:21.849Z,99898.61
2018-09-21T13:24:49.650Z,99892.15
2018-09-21T13:27:17.482Z,99903.44
2018-09-21T13:29:45.487Z,99898.12
2018-09-21T13:32:13.462Z,99886.66
2018-09-21T13:34:41.354Z,99894.98
2018-09-21T13:39:52.148Z,99897.30
2018-09-21T13:42:19.863Z,99895.64
2018-09-21T13:44:47.551Z,99887.98
2018-09-21T13:47:15.207Z,99897.48
2018-09-21T13:49:41.884Z,99903.95
2018-09-21T13:52:08.644Z,99892.98
2018-09-21T13:54:36.196Z,99885.68
2018-09-21T13:57:03.785Z,99887.16
2018-09-21T13:59:31.532Z,99883.16
2018-09-21T14:01:59.842Z,99885.34
2018-09-21T14:04:26.552Z,99885.34
2018-09-21T14:06:53.881Z,99889.79
2018-09-21T14:09:22.550Z,99887.69
2018-09-21T14:11:50.225Z,99884.64
2018-09-21T14:14:17.946Z,99886.72
2018-09-21T14:16:45.667Z,99891.41
2018-09-21T14:19:13.152Z,99874.88
2018-09-21T14:21:40.704Z,99878.14
2018-09-21T14:24:07.451Z,99876.80
2018-09-21T14:26:35.088Z,99874.46
2018-09-21T14:29:02.647Z,99875.34
2018-09-21T14:31:30.127Z,99874.66
2018-09-21T14:33:57.727Z,99866.88
2018-09-21T14:36:25.244Z,99867.38
2018-09-21T14:38:52.857Z,99869.03
2018-09-21T14:41:20.366Z,99862.21
2018-09-21T14:43:48.051Z,99864.06
2018-09-21T14:46:15.693Z,99859.56
2018-09-21T14:48:43.215Z,99857.77
2018-09-21T14:51:10.749Z,99845.95
2018-09-21T14:53:37.448Z,99838.30
2018-09-21T14:56:05.085Z,99838.80
2018-09-21T14:58:31.740Z,99830.81
2018-09-21T15:01:00.773Z,99837.15
2018-09-21T15:03:27.449Z,99840.31
2018-09-21T15:05:54.356Z,99840.80
2018-09-21T15:08:21.049Z,99857.27
2018-09-21T15:10:48.637Z,99969.09
2018-09-21T15:13:15.315Z,99975.91
2018-09-21T15:15:42.945Z,100006.31
2018-09-21T15:18:10.570Z,100042.58
2018-09-21T15:20:38.247Z,100077.80
2018-09-21T15:23:04.908Z,100114.38
2018-09-21T15:25:32.517Z,100125.83
2018-09-21T15:28:00.162Z,100124.45
2018-09-21T15:30:27.668Z,100150.91
2018-09-21T15:32:54.344Z,100146.61
2018-09-21T15:35:22.829Z,100138.41
2018-09-21T15:37:49.516Z,100146.59
2018-09-21T15:40:16.281Z,100138.43
2018-09-21T15:42:43.346Z,100136.75
2018-09-21T15:45:10.115Z,100151.41
2018-09-21T15:47:36.842Z,100164.70
2018-09-21T15:50:03.881Z,100152.87
2018-09-21T15:52:30.613Z,100186.61
2018-09-21T15:54:57.518Z,100190.25
2018-09-21T15:57:24.284Z,100197.05
2018-09-21T15:59:53.091Z,100208.38
2018-09-21T16:02:19.761Z,100217.48
2018-09-21T16:04:47.550Z,100227.28
2018-09-21T16:07:14.301Z,100235.42
2018-09-21T16:09:44.822Z,100230.27
2018-09-21T16:12:12.670Z,100229.92
2018-09-21T16:14:40.180Z,100244.40
2018-09-21T16:17:08.923Z,100246.72
2018-09-21T16:19:35.645Z,100239.41
2018-09-21T16:22:08.246Z,100261.66
2018-09-21T16:24:34.945Z,100272.10
2018-09-21T16:27:01.625Z,100288.88
2018-09-21T16:29:29.548Z,100320.66
2018-09-21T16:31:56.239Z,100306.02
2018-09-21T16:34:23.914Z,100309.98
2018-09-21T16:36:52.691Z,100313.16
2018-09-21T16:39:19.388Z,100307.34
2018-09-21T16:41:46.192Z,100298.37
2018-09-21T16:44:12.916Z,100293.03
2018-09-21T16:46:40.593Z,100295.67
2018-09-21T16:49:08.122Z,100297.02
2018-09-21T16:51:34.826Z,100310.64
2018-09-21T16:54:01.702Z,100322.27
2018-09-21T16:56:29.129Z,100324.27
2018-09-21T16:58:56.091Z,100317.94
2018-09-21T17:01:22.812Z,100315.75
2018-09-21T17:03:49.475Z,100317.73
2018-09-21T17:06:16.216Z,100316.45
2018-09-21T17:08:42.894Z,100314.48
2018-09-21T17:11:09.563Z,100304.54
2018-09-21T17:13:36.265Z,100304.72
2018-09-21T17:16:04.240Z,100307.07
2018-09-21T17:18:31.649Z,100307.09
2018-09-21T17:20:59.692Z,100310.58
2018-09-21T17:23:26.353Z,100336.22
2018-09-21T17:25:54.013Z,100349.03
2018-09-21T17:28:22.483Z,100363.85
2018-09-21T17:30:50.126Z,100377.29
2018-09-21T17:33:16.780Z,100380.45
2018-09-21T17:35:43.420Z,100349.37
2018-09-21T17:38:11.189Z,100352.86
2018-09-21T17:40:37.915Z,100349.20
2018-09-21T17:43:04.945Z,100351.89
2018-09-21T17:45:31.599Z,100372.16
2018-09-21T17:48:00.488Z,100376.30
2018-09-21T17:50:27.184Z,100385.22
2018-09-21T17:52:53.866Z,100396.83
2018-09-21T17:55:20.512Z,100408.66
2018-09-21T17:57:48.145Z,100410.51
2018-09-21T18:00:14.977Z,100415.99
2018-09-21T18:02:42.536Z,100422.64
2018-09-21T18:05:09.203Z,100428.23
2018-09-21T18:07:35.877Z,100451.20
2018-09-21T18:10:02.558Z,100464.63
2018-09-21T18:12:30.005Z,100463.66
2018-09-21T18:14:56.669Z,100448.31
2018-09-21T18:17:24.430Z,100444.66
2018-09-21T18:19:51.149Z,100424.25
2018-09-21T18:22:17.822Z,100402.13
2018-09-21T18:24:44.731Z,100415.42
2018-09-21T18:27:11.474Z,100406.19
2018-09-21T18:29:38.265Z,100411.13
2018-09-21T18:32:05.093Z,100418.57
2018-09-21T18:34:31.805Z,100408.77
2018-09-21T18:36:59.299Z,100404.42
2018-09-21T18:39:26.070Z,100435.02
2018-09-21T18:41:52.745Z,100462.64
2018-09-21T18:44:19.393Z,100478.92
2018-09-21T18:46:47.437Z,100495.55
2018-09-21T18:49:14.084Z,100500.03
2018-09-21T18:51:40.764Z,100509.80
2018-09-21T18:54:07.466Z,100520.80
2018-09-21T18:56:35.154Z,100506.45
2018-09-21T18:59:01.792Z,100527.55
2018-09-21T19:01:29.170Z,100540.68
2018-09-21T19:03:55.831Z,100541.01
2018-09-21T19:06:23.017Z,100526.39
2018-09-21T19:08:50.611Z,100531.04
2018-09-21T19:11:19.422Z,100532.70
2018-09-21T19:13:46.197Z,100567.27
2018-09-21T19:16:13.465Z,100570.92
2018-09-21T19:18:41.141Z,100571.71
2018-09-21T19:21:08.186Z,100566.43
2018-09-21T19:23:35.687Z,100574.17
2018-09-21T19:26:04.633Z,100575.83
2018-09-21T19:28:32.346Z,100599.58
2018-09-21T19:30:59.597Z,100592.81
2018-09-21T19:33:26.258Z,100589.03
2018-09-21T19:35:54.022Z,100594.93
2018-09-21T19:38:22.948Z,100591.07
2018-09-21T19:40:49.817Z,100603.53
2018-09-21T19:43:17.293Z,100608.39
2018-09-21T19:45:48.803Z,100615.08
2018-09-21T19:48:15.541Z,100622.14
2018-09-21T19:50:43.089Z,100624.84
2018-09-21T19:53:09.763Z,100635.06
2018-09-21T19:55:37.303Z,100640.37
2018-09-21T19:58:03.991Z,100636.83
2018-09-21T20:00:30.657Z,100635.41
2018-09-21T20:02:57.344Z,100639.73
2018-09-21T20:05:25.073Z,100643.16
2018-09-21T20:07:52.695Z,100647.41
2018-09-21T20:10:20.176Z,100651.78
2018-09-21T20:12:47.673Z,100656.61
2018-09-21T20:15:15.164Z,100656.16
2018-09-21T20:17:42.613Z,100671.09
2018-09-21T20:20:09.320Z,100683.39
2018-09-21T20:22:37.005Z,100691.20
2018-09-21T20:25:03.674Z,100686.05
2018-09-21T20:27:30.456Z,100696.69
2018-09-21T20:30:02.949Z,100696.34
2018-09-21T20:32:36.729Z,100702.28
2018-09-21T20:35:03.408Z,100711.25
2018-09-21T20:37:30.110Z,100711.25
2018-09-21T20:39:56.785Z,100717.73
2018-09-21T20:42:24.316Z,100713.75
2018-09-21T20:44:52.071Z,100715.23
2018-09-21T20:47:18.754Z,100714.53
2018-09-21T20:49:45.420Z,100726.03
2018-09-21T20:52:12.069Z,100729.70
2018-09-21T20:54:38.758Z,100732.17
2018-09-21T20:57:05.434Z,100737.55
2018-09-21T20:59:32.125Z,100731.47
2018-09-21T21:01:59.910Z,100734.67
2018-09-21T21:04:27.406Z,100746.09
2018-09-21T21:06:54.144Z,100748.30
2018-09-21T21:09:22.532Z,100749.73
2018-09-21T21:11:50.144Z,100754.66
2018-09-21T21:14:16.829Z,100759.04
2018-09-21T21:16:43.577Z,100766.85
2018-09-21T21:19:10.239Z,100763.52
2018-09-21T21:21:36.996Z,100751.95
2018-09-21T21:24:03.654Z,100759.59
2018-09-21T21:26:30.345Z,100765.34
2018-09-21T21:28:58.979Z,100771.66
2018-09-21T21:31:25.781Z,100761.20
2018-09-21T21:33:53.085Z,100766.51
2018-09-21T21:36:19.744Z,100776.30
2018-09-21T21:38:50.183Z,100780.69
2018-09-21T21:41:16.901Z,100788.16
2018-09-21T21:43:44.642Z,100788.31
2018-09-21T21:46:11.370Z,100791.81
2018-09-21T21:48:38.966Z,100795.36
2018-09-21T21:51:06.573Z,100802.66
2018-09-21T21:53:34.033Z,100815.17
2018-09-21T21:56:00.966Z,100816.72
2018-09-21T21:58:27.622Z,100817.45
2018-09-21T22:01:00.208Z,100824.53
2018-09-21T22:03:26.872Z,100831.67
2018-09-21T22:05:54.704Z,100825.42
2018-09-21T22:08:22.353Z,100822.70
2018-09-21T22:10:49.744Z,100822.70
2018-09-21T22:13:21.938Z,100833.98
2018-09-21T22:15:48.658Z,100823.76
2018-09-21T22:18:16.291Z,100823.70
2018-09-21T22:20:43.935Z,100829.17
2018-09-21T22:23:10.624Z,100826.30
2018-09-21T22:25:37.372Z,100827.96
2018-09-21T22:28:05.356Z,100825.70
2018-09-21T22:30:32.083Z,100819.98
2018-09-21T22:33:01.014Z,100823.20
2018-09-21T22:35:27.693Z,100821.26
2018-09-21T22:37:54.372Z,100828.11
2018-09-21T22:40:22.457Z,100823.02
2018-09-21T22:42:49.152Z,100824.63
2018-09-21T22:45:15.897Z,100819.98
2018-09-21T22:47:42.565Z,100823.02
2018-09-21T22:50:09.245Z,100834.27
2018-09-21T22:52:35.919Z,100828.18
2018-09-21T22:55:02.581Z,100828.95
2018-09-21T22:57:30.288Z,100823.08
2018-09-21T22:59:57.792Z,100833.86
2018-09-21T23:02:25.496Z,100834.52
2018-09-21T23:04:52.993Z,100832.81
2018-09-21T23:07:19.712Z,100838.50
2018-09-21T23:09:46.393Z,100841.74
2018-09-21T23:12:14.008Z,100847.80
2018-09-21T23:14:40.699Z,100851.97
2018-09-21T23:17:08.424Z,100846.22
2018-09-21T23:19:35.134Z,100861.42
2018-09-21T23:22:02.792Z,100857.87
2018-09-21T23:24:30.346Z,100861.30
2018-09-21T23:26:57.988Z,100859.53
2018-09-21T23:29:25.601Z,100861.55
2018-09-21T23:31:53.425Z,100854.34
2018-09-21T23:34:22.362Z,100858.95
2018-09-21T23:36:49.962Z,100859.27
2018-09-21T23:39:17.502Z,100864.84
2018-09-21T23:41:45.074Z,100867.02
2018-09-21T23:44:12.585Z,100866.02
2018-09-21T23:46:39.262Z,100874.70
2018-09-21T23:49:06.845Z,100882.75
2018-09-21T23:51:34.517Z,100886.52
2018-09-21T23:54:01.993Z,100885.83
2018-09-21T23:56:31.020Z,100885.55
2018-09-21T23:58:59.709Z,100896.45
